Terminal Aerodrome Forecast
Issued by NWS Corpus Christi, TX

Home | Current Version | Previous Version | Text Only | Print | Product List | Glossary On
Versions: 1 2 3 4 5 6 7 8 9 10 11 12 13 14 15 16 17
000
FTUS44 KCRP 012300
TAFCRP
TAF
KCRP 012338Z 0200/0224 15010KT P6SM FEW020
     FM020400 14010KT 6SM BR SCT015
      TEMPO 0204/0208 BKN015
     FM021600 17015KT P6SM SCT030
     FM022000 16020G25KT P6SM SCT035=

USA.gov is the U.S. government's official web portal to all federal, state and local government web resources and services.